Time;durP1;ratioP1;P1;durP2;ratioP2;P2;SDS_P1;SDS_P2;PMS_P1;PMS_P2;Temp;Humidity;BMP_temperature;BMP_pressure;BME280_temperature;BME280_humidity;BME280_pressure;Samples;Min_cycle;Max_cycle;Signal;HPM_P1;HPM_P2
2022/11/11 00:01:16;;;;;;;7.88;2.10;;;9.20;99.90;;;;;;5005376;28;20561;-49
2022/11/11 00:03:42;;;;;;;4.28;1.33;;;9.10;99.90;;;;;;4991258;28;20043;-52
2022/11/11 00:06:14;;;;;;;11.57;2.47;;;9.10;99.90;;;;;;5006088;28;20044;-50
2022/11/11 00:08:40;;;;;;;8.88;2.63;;;9.10;99.90;;;;;;4978159;28;20033;-48
2022/11/11 00:11:11;;;;;;;7.82;2.05;;;9.00;99.90;;;;;;5005384;28;20030;-49
2022/11/11 00:13:38;;;;;;;3.05;1.67;;;8.90;99.90;;;;;;4977281;28;20561;-52
2022/11/11 00:16:18;;;;;;;7.35;2.20;;;8.90;99.90;;;;;;5005793;28;20463;-48
2022/11/11 00:26:45;;;;;;;6.55;2.20;;;8.80;99.90;;;;;;4996589;28;20469;-47
2022/11/11 00:29:11;;;;;;;11.20;2.22;;;8.70;99.90;;;;;;4986622;28;20522;-48
2022/11/11 00:32:21;;;;;;;5.35;2.55;;;8.70;99.90;;;;;;5005362;28;20041;-48
2022/11/11 00:34:22;;;;;;;8.48;2.80;;;8.70;99.90;;;;;;4983142;28;20039;-51
2022/11/11 00:36:47;;;;;;;7.10;2.20;;;8.70;99.90;;;;;;5005308;28;20053;-49
2022/11/11 00:39:13;;;;;;;7.07;2.25;;;8.60;99.90;;;;;;4993440;28;20137;-51
2022/11/11 00:41:38;;;;;;;8.35;2.33;;;8.60;99.90;;;;;;4986847;28;20066;-48
2022/11/11 00:44:04;;;;;;;6.47;2.20;;;8.50;99.90;;;;;;4999836;28;20073;-50
2022/11/11 00:51:57;;;;;;;6.80;2.22;;;8.40;99.90;;;;;;4993999;28;20109;-52
2022/11/11 00:54:23;;;;;;;8.38;2.13;;;8.40;99.90;;;;;;4985316;28;20113;-48
2022/11/11 00:56:48;;;;;;;5.80;2.08;;;8.40;99.90;;;;;;5003516;28;20042;-48
2022/11/11 00:59:13;;;;;;;4.38;1.98;;;8.30;99.90;;;;;;4984402;28;20030;-49
2022/11/11 01:01:39;;;;;;;6.07;1.73;;;8.30;99.90;;;;;;5006046;28;20033;-48
2022/11/11 01:04:05;;;;;;;5.68;2.00;;;8.30;99.90;;;;;;4994302;28;20044;-48
2022/11/11 01:06:31;;;;;;;6.97;2.20;;;8.30;99.90;;;;;;4989061;28;20034;-50
2022/11/11 01:08:56;;;;;;;10.85;2.60;;;8.20;99.90;;;;;;4990666;28;20510;-49
2022/11/11 01:11:23;;;;;;;8.50;2.40;;;8.20;99.90;;;;;;5006434;28;20137;-51
2022/11/11 01:13:49;;;;;;;8.27;2.65;;;8.20;99.90;;;;;;4986953;28;20026;-50
2022/11/11 01:16:19;;;;;;;6.43;2.45;;;8.20;99.90;;;;;;5007315;28;20026;-53
2022/11/11 01:18:45;;;;;;;6.93;2.42;;;8.10;99.90;;;;;;4986579;28;20042;-50
2022/11/11 01:21:16;;;;;;;10.25;3.58;;;8.10;99.90;;;;;;5022998;28;20040;-52
2022/11/11 01:23:44;;;;;;;6.35;2.72;;;8.10;99.90;;;;;;4986671;28;20047;-51
2022/11/11 01:26:19;;;;;;;6.47;2.45;;;8.10;99.90;;;;;;5005916;28;20029;-51
2022/11/11 01:28:48;;;;;;;7.93;2.95;;;8.10;99.90;;;;;;5000412;28;20118;-52
2022/11/11 01:31:15;;;;;;;4.38;2.17;;;8.10;99.90;;;;;;4991909;28;20034;-53
2022/11/11 01:33:40;;;;;;;7.35;2.35;;;8.10;99.90;;;;;;4996343;28;20321;-48
2022/11/11 01:36:09;;;;;;;7.82;2.25;;;8.10;99.90;;;;;;5010613;28;20477;-52
2022/11/11 01:38:36;;;;;;;9.25;2.50;;;8.10;99.90;;;;;;4993808;28;20030;-48
2022/11/11 01:43:47;;;;;;;4.85;2.38;;;8.20;99.90;;;;;;4984135;28;20557;-50
2022/11/11 01:46:53;;;;;;;8.40;2.63;;;8.20;99.90;;;;;;5010258;28;20030;-50
2022/11/11 01:49:35;;;;;;;4.72;2.58;;;8.20;99.90;;;;;;4986400;28;20034;-49
2022/11/11 01:52:45;;;;;;;5.70;2.80;;;8.30;99.90;;;;;;4972177;28;20062;-53
2022/11/11 01:55:16;;;;;;;5.50;2.45;;;8.30;99.90;;;;;;4949938;28;20095;-53
2022/11/11 01:58:02;;;;;;;7.60;2.60;;;8.30;99.90;;;;;;4978916;28;20046;-54
2022/11/11 02:00:27;;;;;;;10.55;3.08;;;8.40;99.90;;;;;;5010836;28;20213;-51
2022/11/11 02:03:05;;;;;;;8.93;3.00;;;8.40;99.90;;;;;;4995963;28;20128;-52
2022/11/11 02:05:46;;;;;;;6.60;2.22;;;8.40;99.90;;;;;;5010801;28;20371;-59
2022/11/11 02:08:31;;;;;;;10.93;3.10;;;8.40;99.90;;;;;;4987247;28;20038;-59
2022/11/11 02:11:00;;;;;;;4.18;2.80;;;8.40;99.90;;;;;;4971712;28;20031;-59
2022/11/11 02:16:10;;;;;;;9.57;2.50;;;8.30;99.90;;;;;;4971573;28;20242;-58
2022/11/11 02:18:36;;;;;;;7.28;3.13;;;8.30;99.90;;;;;;4995491;28;20144;-58
2022/11/11 02:21:01;;;;;;;7.18;2.30;;;8.30;99.90;;;;;;5009772;28;20026;-58
2022/11/11 02:23:41;;;;;;;5.75;2.50;;;8.30;99.90;;;;;;4989424;28;20042;-59
2022/11/11 02:26:09;;;;;;;5.82;2.67;;;8.30;99.90;;;;;;4972061;28;20113;-57
2022/11/11 02:28:36;;;;;;;8.32;2.30;;;8.30;99.90;;;;;;5003506;28;20506;-58
2022/11/11 02:31:02;;;;;;;11.60;2.70;;;8.30;99.90;;;;;;4990873;28;20026;-58
2022/11/11 02:33:27;;;;;;;4.80;2.50;;;8.30;99.90;;;;;;4996804;28;20506;-58
2022/11/11 02:35:56;;;;;;;9.05;2.67;;;8.20;99.90;;;;;;5009426;28;20030;-59
2022/11/11 02:38:24;;;;;;;9.57;2.88;;;8.20;99.90;;;;;;4998569;28;20088;-59
2022/11/11 02:43:34;;;;;;;8.93;2.90;;;8.30;99.90;;;;;;4992640;28;20041;-59
2022/11/11 02:46:02;;;;;;;8.55;2.45;;;8.30;99.90;;;;;;4991161;28;20023;-58
2022/11/11 02:48:28;;;;;;;6.03;2.40;;;8.30;99.90;;;;;;5007681;28;20037;-59
2022/11/11 02:50:54;;;;;;;4.72;2.47;;;8.30;99.90;;;;;;4990779;28;20034;-59
2022/11/11 02:53:20;;;;;;;5.05;2.00;;;8.30;99.90;;;;;;5007177;28;20557;-58
2022/11/11 02:55:46;;;;;;;7.00;2.40;;;8.30;99.90;;;;;;4988294;28;20443;-59
2022/11/11 02:58:13;;;;;;;4.30;2.50;;;8.30;99.90;;;;;;5008167;28;20052;-59
2022/11/11 03:00:38;;;;;;;5.85;2.72;;;8.30;99.90;;;;;;4988624;28;20039;-59
2022/11/11 03:03:04;;;;;;;7.65;2.70;;;8.30;99.90;;;;;;5008901;28;20038;-59
2022/11/11 03:05:29;;;;;;;3.53;2.13;;;8.30;99.90;;;;;;4988560;28;20061;-59
2022/11/11 03:07:55;;;;;;;7.30;3.38;;;8.40;99.90;;;;;;5008887;28;20022;-59
2022/11/11 03:10:20;;;;;;;9.60;3.38;;;8.40;99.90;;;;;;4998968;28;20042;-59
2022/11/11 03:12:46;;;;;;;12.50;2.53;;;8.40;99.90;;;;;;4990416;28;20117;-59
2022/11/11 03:15:11;;;;;;;7.47;2.50;;;8.40;99.90;;;;;;5006888;28;20382;-59
2022/11/11 03:17:40;;;;;;;8.30;2.53;;;8.40;99.90;;;;;;4990333;28;20058;-59
2022/11/11 03:23:06;;;;;;;6.55;2.30;;;8.40;99.90;;;;;;4970671;28;20471;-59
2022/11/11 03:25:38;;;;;;;4.97;2.20;;;8.40;99.90;;;;;;4995353;28;20030;-59
2022/11/11 03:28:24;;;;;;;7.10;2.38;;;8.30;99.90;;;;;;4964128;28;20077;-58
2022/11/11 03:30:50;;;;;;;3.28;2.38;;;8.40;99.90;;;;;;4982566;28;20054;-59
2022/11/11 03:33:17;;;;;;;5.35;2.15;;;8.40;99.90;;;;;;5008622;28;20025;-59
2022/11/11 03:35:45;;;;;;;8.43;3.30;;;8.40;99.90;;;;;;4987936;28;20038;-59
2022/11/11 03:38:14;;;;;;;6.00;2.67;;;8.40;99.90;;;;;;5007767;28;20033;-59
2022/11/11 03:40:41;;;;;;;7.78;2.50;;;8.40;99.90;;;;;;4987768;28;20046;-59
2022/11/11 03:43:06;;;;;;;8.25;2.70;;;8.40;99.90;;;;;;5008298;28;20259;-58
2022/11/11 03:45:32;;;;;;;6.35;2.83;;;8.30;99.90;;;;;;4987835;28;20034;-59
2022/11/11 03:47:57;;;;;;;8.98;2.80;;;8.30;99.90;;;;;;5008162;28;20038;-58
2022/11/11 03:50:23;;;;;;;8.40;2.67;;;8.40;99.90;;;;;;4987944;28;20140;-59
2022/11/11 03:52:48;;;;;;;6.47;3.15;;;8.30;99.90;;;;;;5007826;28;20129;-59
2022/11/11 03:55:14;;;;;;;6.75;2.67;;;8.30;99.90;;;;;;4997397;28;20060;-58
2022/11/11 03:57:45;;;;;;;6.68;3.95;;;8.30;99.90;;;;;;4989791;28;20109;-59
2022/11/11 04:00:22;;;;;;;6.90;2.63;;;8.30;99.90;;;;;;4995219;28;20022;-59
2022/11/11 04:11:10;;;;;;;7.13;3.15;;;8.20;99.90;;;;;;4970173;28;20407;-58
2022/11/11 04:16:20;;;;;;;8.27;3.13;;;8.20;99.90;;;;;;4970037;28;20410;-59
2022/11/11 04:21:44;;;;;;;10.30;3.20;;;8.10;99.90;;;;;;4969954;28;20061;-59
2022/11/11 04:27:03;;;;;;;10.52;3.28;;;8.10;99.90;;;;;;4980244;28;20126;-60
2022/11/11 04:29:29;;;;;;;9.57;3.30;;;8.10;99.90;;;;;;5006838;28;20045;-60
2022/11/11 04:34:47;;;;;;;6.35;3.03;;;8.10;99.90;;;;;;4969647;28;20046;-60
2022/11/11 04:37:14;;;;;;;5.32;2.85;;;8.00;99.90;;;;;;4969727;28;20404;-52
2022/11/11 04:42:25;;;;;;;6.30;2.80;;;8.00;99.90;;;;;;4972848;28;20069;-56
2022/11/11 04:47:34;;;;;;;5.93;2.45;;;8.10;99.90;;;;;;4978464;28;20399;-53
2022/11/11 04:50:00;;;;;;;5.28;2.80;;;8.10;99.90;;;;;;4999382;28;20027;-53
2022/11/11 04:52:25;;;;;;;8.65;2.95;;;8.10;99.90;;;;;;4988927;28;20026;-53
2022/11/11 04:57:41;;;;;;;6.38;2.72;;;8.10;99.90;;;;;;4998147;28;20446;-54
2022/11/11 05:00:13;;;;;;;7.38;3.83;;;8.10;99.90;;;;;;4991307;28;20118;-55
2022/11/11 05:05:24;;;;;;;6.68;3.22;;;8.10;99.90;;;;;;4987654;28;20076;-53
2022/11/11 05:10:34;;;;;;;9.65;3.45;;;8.10;99.90;;;;;;4990813;28;20033;-53
2022/11/11 05:21:28;;;;;;;7.93;2.97;;;8.10;99.90;;;;;;4995444;28;20095;-55
2022/11/11 05:26:38;;;;;;;4.80;2.15;;;8.10;99.90;;;;;;4990985;28;20548;-55
2022/11/11 05:29:03;;;;;;;7.00;2.30;;;8.10;99.90;;;;;;5011958;28;20034;-53
2022/11/11 05:31:29;;;;;;;7.20;2.50;;;8.10;99.90;;;;;;4989708;28;20066;-55
2022/11/11 05:33:55;;;;;;;7.40;2.92;;;8.10;99.90;;;;;;5010128;28;20034;-56
2022/11/11 05:36:20;;;;;;;7.50;2.30;;;8.10;99.90;;;;;;4990684;28;20026;-55
2022/11/11 05:38:46;;;;;;;7.57;2.55;;;8.10;99.90;;;;;;4998579;28;20144;-55
2022/11/11 05:41:11;;;;;;;7.85;2.58;;;8.00;99.90;;;;;;4992049;28;20031;-55
2022/11/11 05:43:37;;;;;;;8.30;3.00;;;8.00;99.90;;;;;;5008769;28;20042;-53
2022/11/11 05:46:03;;;;;;;7.30;2.42;;;8.00;99.90;;;;;;5000632;28;20682;-51
2022/11/11 05:48:29;;;;;;;7.53;2.70;;;8.00;99.90;;;;;;5008744;28;20034;-54
2022/11/11 05:50:57;;;;;;;6.50;2.50;;;8.00;99.90;;;;;;5011489;28;20390;-54
2022/11/11 05:53:22;;;;;;;7.75;2.67;;;8.00;99.90;;;;;;4992932;28;20033;-54
2022/11/11 05:55:51;;;;;;;7.50;2.47;;;7.90;99.90;;;;;;5011266;28;20025;-52
2022/11/11 05:58:18;;;;;;;6.40;2.47;;;7.90;99.90;;;;;;4993612;28;20676;-55
2022/11/11 06:00:43;;;;;;;6.65;2.55;;;7.90;99.90;;;;;;5010104;28;20022;-53
2022/11/11 06:03:09;;;;;;;3.97;2.47;;;7.90;99.90;;;;;;4992363;28;20518;-54
2022/11/11 06:05:35;;;;;;;4.85;2.45;;;7.90;99.90;;;;;;5011132;28;20422;-54
2022/11/11 06:08:01;;;;;;;6.32;2.85;;;7.90;99.90;;;;;;4991196;28;20030;-49
2022/11/11 06:10:29;;;;;;;10.55;2.90;;;7.90;99.90;;;;;;5011113;28;20386;-54
2022/11/11 06:13:04;;;;;;;5.75;2.35;;;7.90;99.90;;;;;;4989677;28;20022;-54
2022/11/11 06:15:31;;;;;;;4.63;2.42;;;7.90;99.90;;;;;;5009448;28;20598;-51
2022/11/11 06:17:57;;;;;;;10.82;2.80;;;7.90;99.90;;;;;;4989940;28;20030;-50
2022/11/11 06:20:22;;;;;;;6.75;2.53;;;7.90;99.90;;;;;;5010488;28;20034;-52
2022/11/11 06:22:57;;;;;;;5.97;2.67;;;7.90;99.90;;;;;;4991308;28;20082;-55
2022/11/11 06:28:13;;;;;;;7.05;3.05;;;7.90;99.90;;;;;;4969428;28;20065;-51
2022/11/11 06:30:39;;;;;;;6.80;2.97;;;7.90;99.90;;;;;;5009015;28;20544;-54
2022/11/11 06:33:06;;;;;;;10.80;3.25;;;7.90;99.90;;;;;;4990853;28;20035;-54
2022/11/11 06:35:33;;;;;;;4.30;2.58;;;8.00;99.90;;;;;;5010460;28;20387;-56
2022/11/11 06:37:59;;;;;;;5.60;2.92;;;8.00;99.90;;;;;;4989963;28;20050;-55
2022/11/11 06:40:24;;;;;;;10.98;2.83;;;8.00;99.90;;;;;;5009942;28;20077;-52
2022/11/11 06:42:50;;;;;;;9.02;3.45;;;8.00;99.90;;;;;;4990868;28;20498;-52
2022/11/11 06:45:16;;;;;;;6.78;3.17;;;8.00;99.90;;;;;;5007740;28;20037;-55
2022/11/11 06:47:42;;;;;;;8.00;3.28;;;8.10;99.90;;;;;;4990825;28;20022;-55
2022/11/11 06:50:08;;;;;;;7.82;3.03;;;8.10;99.90;;;;;;4989119;28;20042;-53
2022/11/11 06:52:33;;;;;;;7.78;2.75;;;8.10;99.90;;;;;;5009446;28;20058;-53
2022/11/11 06:54:59;;;;;;;8.35;2.88;;;8.20;99.90;;;;;;4989065;28;20507;-54
2022/11/11 06:57:24;;;;;;;6.22;3.22;;;8.20;99.90;;;;;;5024738;28;20041;-56
2022/11/11 06:59:50;;;;;;;10.85;3.38;;;8.20;99.90;;;;;;4988922;28;20113;-52
2022/11/11 07:02:15;;;;;;;5.60;2.97;;;8.20;99.90;;;;;;5007156;28;20026;-58
2022/11/11 07:04:41;;;;;;;5.03;3.20;;;8.20;99.90;;;;;;5009991;28;20076;-54
2022/11/11 07:07:06;;;;;;;7.05;2.95;;;8.30;99.90;;;;;;4988711;28;20442;-52
2022/11/11 07:09:32;;;;;;;4.20;2.35;;;8.30;99.90;;;;;;4990385;28;20030;-55
2022/11/11 07:11:58;;;;;;;5.97;3.28;;;8.30;99.90;;;;;;5007090;28;20040;-55
2022/11/11 07:14:23;;;;;;;9.00;2.70;;;8.40;99.90;;;;;;5009914;28;20072;-56
2022/11/11 07:16:49;;;;;;;11.02;2.90;;;8.50;99.90;;;;;;4989354;28;20498;-56
2022/11/11 07:19:14;;;;;;;8.32;2.92;;;8.50;99.90;;;;;;5009512;28;20197;-54
2022/11/11 07:21:40;;;;;;;7.45;2.63;;;8.50;99.90;;;;;;4989399;28;20041;-57
2022/11/11 07:24:05;;;;;;;10.82;3.20;;;8.60;99.90;;;;;;5006798;28;20500;-56
2022/11/11 07:26:31;;;;;;;6.07;2.75;;;8.60;99.90;;;;;;4990547;28;20033;-54
2022/11/11 07:28:57;;;;;;;15.18;3.50;;;8.70;99.90;;;;;;4990021;28;20045;-57
2022/11/11 07:31:22;;;;;;;7.55;3.08;;;8.70;99.90;;;;;;5008629;28;20030;-52
2022/11/11 07:33:48;;;;;;;6.97;2.95;;;8.70;99.90;;;;;;4988624;28;20034;-55
2022/11/11 07:36:13;;;;;;;5.30;2.45;;;8.80;99.90;;;;;;5008756;28;20080;-51
2022/11/11 07:38:39;;;;;;;7.32;3.15;;;8.80;99.90;;;;;;4992459;28;20125;-54
2022/11/11 07:41:04;;;;;;;9.05;2.63;;;8.90;99.90;;;;;;5009431;28;20038;-55
2022/11/11 07:43:30;;;;;;;9.48;2.67;;;8.90;99.90;;;;;;4988136;28;20101;-57
2022/11/11 07:45:55;;;;;;;7.53;3.22;;;9.00;99.90;;;;;;5008696;28;20121;-53
2022/11/11 07:48:21;;;;;;;5.80;3.17;;;9.10;99.90;;;;;;4987190;28;20018;-54
2022/11/11 07:50:46;;;;;;;10.70;3.00;;;9.20;99.90;;;;;;5008352;28;20433;-53
2022/11/11 07:53:11;;;;;;;8.70;2.97;;;9.20;99.90;;;;;;4987138;28;20058;-54
2022/11/11 07:55:37;;;;;;;8.73;2.40;;;9.30;99.90;;;;;;5008359;28;20452;-54
2022/11/11 07:58:02;;;;;;;4.35;2.42;;;9.30;99.90;;;;;;4998683;28;20025;-55
2022/11/11 08:00:28;;;;;;;8.93;3.08;;;9.40;99.90;;;;;;4990061;28;20053;-56
2022/11/11 08:02:53;;;;;;;6.60;2.55;;;9.40;99.90;;;;;;5006071;28;20041;-56
2022/11/11 08:05:19;;;;;;;6.88;2.83;;;9.50;99.90;;;;;;4990017;28;20033;-51
2022/11/11 08:07:45;;;;;;;4.30;2.28;;;9.50;99.90;;;;;;5006338;28;20544;-56
2022/11/11 08:10:11;;;;;;;8.73;2.53;;;9.60;99.90;;;;;;4989445;28;20026;-58
2022/11/11 08:15:21;;;;;;;6.13;2.33;;;9.80;99.90;;;;;;5008708;28;20037;-58
2022/11/11 08:17:46;;;;;;;8.48;2.75;;;9.90;99.90;;;;;;4996157;28;20398;-58
2022/11/11 08:20:12;;;;;;;5.97;2.30;;;10.00;99.90;;;;;;4989721;28;20034;-56
2022/11/11 08:22:39;;;;;;;6.95;2.35;;;10.00;99.90;;;;;;5005817;28;20060;-56
2022/11/11 08:25:06;;;;;;;7.82;2.75;;;10.20;99.90;;;;;;5008790;28;20021;-56
2022/11/11 08:27:32;;;;;;;4.25;2.58;;;10.30;99.90;;;;;;4990690;28;20041;-54
2022/11/11 08:29:57;;;;;;;6.40;2.88;;;10.40;99.90;;;;;;5008630;28;20038;-55
2022/11/11 08:32:23;;;;;;;8.23;2.83;;;10.50;99.90;;;;;;4992966;28;20030;-53
2022/11/11 08:34:48;;;;;;;3.72;2.13;;;10.60;99.90;;;;;;5008474;28;20040;-52
2022/11/11 08:37:14;;;;;;;6.43;2.38;;;10.70;99.90;;;;;;4991644;28;20405;-53
2022/11/11 08:39:39;;;;;;;4.88;3.05;;;10.90;99.90;;;;;;4998045;28;20117;-55
2022/11/11 08:42:05;;;;;;;4.95;2.80;;;10.90;99.90;;;;;;5009895;28;20026;-56
2022/11/11 08:44:30;;;;;;;4.45;2.38;;;11.10;99.90;;;;;;5012586;28;20116;-55
2022/11/11 08:46:56;;;;;;;7.18;2.83;;;11.30;99.90;;;;;;4993011;28;20034;-55
2022/11/11 08:49:21;;;;;;;4.88;2.22;;;11.40;99.90;;;;;;5011528;28;20026;-56
2022/11/11 08:51:47;;;;;;;5.22;2.10;;;11.60;99.90;;;;;;4991799;28;20471;-56
2022/11/11 08:54:12;;;;;;;3.50;1.98;;;11.80;99.90;;;;;;5012439;28;20029;-55
2022/11/11 08:56:38;;;;;;;6.82;1.88;;;12.10;99.90;;;;;;4993409;28;20094;-55
2022/11/11 08:59:03;;;;;;;3.78;2.38;;;12.30;99.90;;;;;;4990956;28;20030;-53
2022/11/11 09:01:29;;;;;;;4.13;1.85;;;12.60;99.90;;;;;;5011499;28;20068;-52
2022/11/11 09:03:54;;;;;;;5.32;2.13;;;12.90;99.90;;;;;;4991391;28;20070;-53
2022/11/11 09:06:19;;;;;;;5.18;2.08;;;13.20;99.90;;;;;;5011117;28;20030;-56
2022/11/11 09:08:45;;;;;;;2.92;1.63;;;13.40;99.90;;;;;;4991330;28;20052;-54
2022/11/11 09:11:11;;;;;;;4.75;2.00;;;13.60;99.90;;;;;;5011450;28;20025;-55
2022/11/11 09:13:37;;;;;;;4.03;1.80;;;13.80;99.90;;;;;;4990878;28;20114;-55
2022/11/11 09:16:02;;;;;;;5.60;2.05;;;13.90;99.90;;;;;;5011331;28;20117;-54
2022/11/11 09:18:30;;;;;;;4.80;2.08;;;14.10;99.90;;;;;;4991205;28;20110;-55
2022/11/11 09:20:58;;;;;;;3.83;1.95;;;14.20;99.90;;;;;;5011545;28;20041;-56
2022/11/11 09:23:24;;;;;;;4.97;1.90;;;14.30;99.90;;;;;;4990497;28;20038;-56
2022/11/11 09:25:50;;;;;;;4.20;1.90;;;14.40;99.90;;;;;;5026887;28;20034;-58
2022/11/11 09:28:15;;;;;;;5.13;2.10;;;14.50;99.90;;;;;;4987675;28;20030;-54
2022/11/11 09:30:41;;;;;;;5.38;1.95;;;14.50;99.80;;;;;;5026638;28;20521;-55
2022/11/11 09:33:06;;;;;;;3.55;1.70;;;14.60;99.60;;;;;;4990775;28;20113;-54
2022/11/11 09:35:32;;;;;;;6.00;1.60;;;14.60;98.00;;;;;;5010966;28;20442;-56
2022/11/11 09:37:59;;;;;;;4.40;1.33;;;14.60;95.60;;;;;;5000234;28;20034;-51
2022/11/11 09:40:52;;;;;;;3.80;1.85;;;14.50;96.60;;;;;;4992140;28;20050;-54
2022/11/11 09:43:55;;;;;;;4.55;1.70;;;14.60;96.50;;;;;;4994408;28;20107;-53
2022/11/11 09:46:32;;;;;;;4.57;1.85;;;14.60;92.70;;;;;;4972199;28;20033;-54
2022/11/11 09:49:15;;;;;;;4.55;1.70;;;14.60;96.80;;;;;;4988416;28;20057;-54
2022/11/11 09:52:13;;;;;;;5.07;1.55;;;14.50;96.20;;;;;;4972498;28;20070;-55
2022/11/11 09:54:47;;;;;;;2.67;1.25;;;14.50;94.90;;;;;;4972601;28;20046;-55
2022/11/11 09:57:38;;;;;;;4.50;1.83;;;14.40;94.20;;;;;;4978221;28;20616;-56
2022/11/11 10:00:23;;;;;;;2.88;1.70;;;14.40;90.10;;;;;;5011343;28;20115;-55
2022/11/11 10:02:52;;;;;;;4.57;1.35;;;14.30;91.80;;;;;;4987491;28;20038;-55
2022/11/11 10:05:40;;;;;;;2.45;1.38;;;14.30;94.50;;;;;;4991631;28;20180;-55
2022/11/11 10:08:15;;;;;;;2.75;1.55;;;14.30;94.10;;;;;;4991900;28;20046;-53
2022/11/11 10:10:46;;;;;;;2.93;1.83;;;14.30;92.90;;;;;;4971953;28;20026;-51
2022/11/11 10:13:15;;;;;;;4.28;1.60;;;14.20;92.60;;;;;;4996350;28;20381;-52
2022/11/11 10:15:54;;;;;;;5.32;1.80;;;14.20;92.10;;;;;;5010525;28;20398;-52
2022/11/11 10:18:26;;;;;;;3.65;1.83;;;14.10;89.20;;;;;;4983018;28;20106;-53
2022/11/11 10:20:54;;;;;;;4.00;1.38;;;14.00;91.70;;;;;;4971918;28;20027;-54
2022/11/11 10:23:28;;;;;;;4.55;1.70;;;14.00;90.40;;;;;;4995335;28;20089;-53
2022/11/11 10:25:55;;;;;;;4.20;1.67;;;14.00;90.70;;;;;;4971777;28;20027;-53
2022/11/11 10:28:28;;;;;;;6.45;1.73;;;14.00;92.20;;;;;;4991380;28;20137;-55
2022/11/11 10:30:54;;;;;;;3.05;1.45;;;14.10;92.30;;;;;;4971432;28;20051;-52
2022/11/11 10:33:27;;;;;;;4.53;1.63;;;14.10;91.30;;;;;;4994679;28;20042;-55
2022/11/11 10:35:56;;;;;;;2.25;1.67;;;14.10;91.20;;;;;;4971471;28;20030;-54
2022/11/11 10:38:38;;;;;;;4.13;1.75;;;14.20;90.70;;;;;;4996738;28;20043;-55
2022/11/11 10:41:20;;;;;;;7.60;1.60;;;14.20;87.00;;;;;;5010257;28;20041;-55
2022/11/11 10:43:46;;;;;;;5.32;1.70;;;14.20;90.40;;;;;;4985984;28;20042;-52
2022/11/11 10:46:41;;;;;;;3.22;1.73;;;14.30;89.30;;;;;;5010157;28;20087;-50
2022/11/11 10:49:20;;;;;;;4.82;1.73;;;14.30;84.30;;;;;;4988932;28;20786;-54
2022/11/11 10:51:52;;;;;;;5.40;1.80;;;14.30;86.30;;;;;;4970020;28;20030;-54
2022/11/11 10:54:28;;;;;;;2.92;1.67;;;14.30;86.40;;;;;;5010228;28;20048;-54
2022/11/11 10:57:23;;;;;;;4.30;1.70;;;14.30;86.10;;;;;;4972281;28;20033;-57
2022/11/11 10:59:55;;;;;;;4.40;1.63;;;14.30;85.60;;;;;;5006964;28;20124;-54
2022/11/11 11:02:25;;;;;;;3.33;1.50;;;14.20;85.10;;;;;;4978234;28;20034;-52
2022/11/11 11:05:05;;;;;;;3.28;1.80;;;14.20;86.70;;;;;;5009849;28;20097;-52
2022/11/11 11:07:39;;;;;;;3.63;1.98;;;14.30;83.70;;;;;;4981596;28;20022;-54
2022/11/11 11:10:11;;;;;;;3.25;1.60;;;14.30;83.50;;;;;;5009747;28;20116;-53
2022/11/11 11:12:58;;;;;;;6.25;1.88;;;14.20;84.90;;;;;;4983307;28;20113;-56
2022/11/11 11:15:25;;;;;;;;;;;14.30;78.00;;;;;;4971268;28;20058;-53
2022/11/11 11:17:58;;;;;;;7.35;2.05;;;14.20;76.90;;;;;;5007082;28;19916;-52
2022/11/11 11:20:24;;;;;;;3.65;2.22;;;14.30;81.70;;;;;;4970790;28;20560;-51
2022/11/11 11:23:01;;;;;;;6.00;1.80;;;14.30;82.10;;;;;;5006111;28;20077;-56
2022/11/11 11:25:29;;;;;;;6.05;1.60;;;14.30;85.30;;;;;;4970369;28;20026;-54
2022/11/11 11:28:13;;;;;;;3.90;1.80;;;14.30;84.60;;;;;;5004234;28;20064;-51
2022/11/11 11:30:39;;;;;;;8.68;2.17;;;14.20;79.70;;;;;;4990293;28;20035;-55
2022/11/11 11:33:07;;;;;;;3.58;1.73;;;14.20;82.50;;;;;;4995965;28;20038;-49
2022/11/11 11:35:35;;;;;;;3.80;1.58;;;14.20;83.70;;;;;;5008786;28;20096;-55
2022/11/11 11:38:02;;;;;;;2.63;1.55;;;14.20;85.40;;;;;;4998398;28;20022;-49
2022/11/11 11:40:43;;;;;;;4.53;1.65;;;14.20;85.90;;;;;;4990080;28;20054;-56
2022/11/11 11:43:32;;;;;;;6.22;1.83;;;14.20;83.50;;;;;;4989738;28;20037;-54
2022/11/11 11:46:00;;;;;;;1.83;1.30;;;14.20;81.80;;;;;;4967014;28;20059;-53
2022/11/11 11:48:44;;;;;;;3.78;1.33;;;14.20;85.80;;;;;;4992860;28;20533;-54
2022/11/11 11:51:36;;;;;;;3.42;1.58;;;14.10;86.90;;;;;;4970179;28;20050;-55
2022/11/11 11:54:29;;;;;;;4.82;1.63;;;14.10;85.00;;;;;;4987066;28;20137;-55
2022/11/11 11:57:02;;;;;;;5.40;1.65;;;14.00;82.50;;;;;;4971461;28;20039;-51
2022/11/11 11:59:49;;;;;;;4.35;1.85;;;14.00;85.60;;;;;;5009161;28;20479;-52
2022/11/11 12:02:43;;;;;;;4.07;1.65;;;14.00;86.70;;;;;;4976413;28;20029;-49
2022/11/11 12:05:17;;;;;;;3.22;1.63;;;13.90;85.60;;;;;;5008720;28;20546;-54
2022/11/11 12:07:46;;;;;;;2.35;1.38;;;13.90;86.40;;;;;;4983907;28;20034;-54
2022/11/11 12:10:41;;;;;;;3.95;1.38;;;13.80;88.10;;;;;;4989881;28;20501;-53
2022/11/11 12:13:39;;;;;;;3.58;1.77;;;13.90;86.00;;;;;;4989948;28;20037;-55
2022/11/11 12:16:32;;;;;;;4.65;1.65;;;13.80;88.10;;;;;;4986612;28;20048;-51
2022/11/11 12:19:34;;;;;;;2.28;1.27;;;13.80;85.40;;;;;;4989397;28;20041;-55
2022/11/11 12:22:25;;;;;;;4.15;1.65;;;13.80;86.50;;;;;;4978974;28;20018;-50
2022/11/11 12:25:06;;;;;;;4.60;1.50;;;13.80;88.30;;;;;;5008999;28;20394;-53
2022/11/11 12:27:55;;;;;;;5.88;1.92;;;13.80;88.60;;;;;;4977301;28;20573;-51
2022/11/11 12:30:28;;;;;;;3.78;1.55;;;13.80;88.30;;;;;;4970057;28;20085;-53
2022/11/11 12:33:17;;;;;;;3.13;1.40;;;13.80;88.80;;;;;;4994590;28;20109;-54
2022/11/11 12:36:05;;;;;;;3.17;1.40;;;13.80;89.40;;;;;;4969622;28;20027;-52
2022/11/11 12:38:44;;;;;;;4.30;1.23;;;13.80;89.70;;;;;;4988714;28;20049;-53
2022/11/11 12:41:29;;;;;;;2.83;1.73;;;13.80;88.80;;;;;;5008836;28;20529;-51
2022/11/11 12:44:04;;;;;;;3.47;1.45;;;13.80;89.80;;;;;;4969903;28;20714;-52
2022/11/11 12:47:00;;;;;;;3.28;1.23;;;13.80;87.20;;;;;;4970657;28;20165;-51
2022/11/11 12:49:42;;;;;;;5.45;1.75;;;13.70;86.20;;;;;;5008823;28;20022;-48
2022/11/11 12:52:19;;;;;;;3.03;1.38;;;13.70;89.60;;;;;;4980561;28;20570;-49
2022/11/11 12:55:06;;;;;;;4.85;1.50;;;13.70;90.10;;;;;;5008778;28;20018;-53
2022/11/11 12:57:43;;;;;;;;;;;13.70;89.80;;;;;;4977720;28;20038;-54
2022/11/11 13:00:23;;;;;;;3.33;1.60;;;13.70;86.40;;;;;;5007894;28;19913;-48
2022/11/11 13:03:21;;;;;;;4.53;1.58;;;13.60;89.50;;;;;;4979845;28;20043;-51
2022/11/11 13:06:23;;;;;;;3.05;1.23;;;13.60;89.10;;;;;;4969692;28;20031;-54
2022/11/11 13:09:13;;;;;;;3.13;1.23;;;13.50;90.00;;;;;;4968515;28;20041;-51
2022/11/11 13:11:58;;;;;;;3.25;1.45;;;13.50;90.50;;;;;;5006376;28;20026;-51
2022/11/11 13:14:41;;;;;;;3.38;1.55;;;13.40;90.50;;;;;;5008496;28;20455;-52
2022/11/11 13:17:12;;;;;;;6.32;1.60;;;13.30;90.20;;;;;;4980482;28;20109;-50
2022/11/11 13:19:54;;;;;;;4.45;1.75;;;13.30;90.80;;;;;;5008692;28;20026;-49
2022/11/11 13:22:25;;;;;;;5.05;2.03;;;13.30;90.80;;;;;;4983578;28;20037;-52
2022/11/11 13:24:52;;;;;;;3.90;1.35;;;13.20;91.00;;;;;;4989822;28;20125;-50
2022/11/11 13:27:43;;;;;;;6.15;2.05;;;13.20;91.20;;;;;;4984752;28;20031;-52
2022/11/11 13:30:27;;;;;;;4.03;1.75;;;13.10;90.60;;;;;;4973166;28;20806;-52
2022/11/11 13:33:19;;;;;;;2.35;1.50;;;13.10;90.50;;;;;;5011979;28;20069;-53
2022/11/11 13:35:53;;;;;;;11.95;1.42;;;13.00;91.40;;;;;;4982985;28;20053;-55
2022/11/11 13:38:38;;;;;;;2.28;1.38;;;13.00;91.80;;;;;;5000681;28;20034;-59
2022/11/11 13:41:07;;;;;;;3.45;1.50;;;12.90;91.80;;;;;;5009912;28;20034;-58
2022/11/11 13:43:45;;;;;;;3.55;1.40;;;12.90;92.40;;;;;;4992112;28;20038;-58
2022/11/11 13:46:27;;;;;;;3.75;1.50;;;12.90;92.50;;;;;;5009593;28;20112;-58
2022/11/11 13:48:55;;;;;;;4.25;1.73;;;12.80;92.80;;;;;;4972790;28;20031;-58
2022/11/11 13:51:30;;;;;;;4.25;1.65;;;12.80;92.90;;;;;;5008772;28;20033;-58
2022/11/11 13:53:59;;;;;;;2.90;1.50;;;12.70;92.80;;;;;;4992071;28;20034;-58
2022/11/11 13:56:30;;;;;;;4.82;1.63;;;12.70;93.10;;;;;;4998138;28;20405;-58
2022/11/11 13:58:56;;;;;;;4.93;1.98;;;12.70;93.40;;;;;;4971235;28;20045;-58
2022/11/11 14:01:23;;;;;;;4.40;2.10;;;12.60;93.70;;;;;;4997215;28;20088;-58
2022/11/11 14:03:48;;;;;;;8.05;2.25;;;12.60;94.30;;;;;;5010625;28;20026;-58
2022/11/11 14:06:14;;;;;;;6.15;2.22;;;12.50;94.90;;;;;;5000352;28;20387;-58
2022/11/11 14:08:45;;;;;;;1.75;1.58;;;12.50;95.30;;;;;;4991926;28;20030;-54
2022/11/11 14:11:29;;;;;;;2.15;1.48;;;12.40;95.80;;;;;;4972326;28;20042;-54
2022/11/11 14:13:56;;;;;;;4.95;2.15;;;12.30;96.10;;;;;;4983448;28;20450;-49
2022/11/11 14:16:34;;;;;;;3.30;1.90;;;12.30;97.00;;;;;;5009615;28;20045;-51
2022/11/11 14:19:18;;;;;;;5.68;1.92;;;12.20;97.10;;;;;;4989413;28;20070;-50
2022/11/11 14:21:50;;;;;;;4.10;2.05;;;12.20;97.90;;;;;;5009808;28;20129;-50
2022/11/11 14:24:36;;;;;;;2.55;1.48;;;12.10;98.30;;;;;;4989118;28;20215;-50
2022/11/11 14:27:09;;;;;;;4.50;1.80;;;12.00;98.60;;;;;;4981076;28;20237;-48
2022/11/11 14:29:46;;;;;;;6.20;2.00;;;12.00;99.00;;;;;;4988905;28;20045;-54